Terminal Aerodrome Forecast
Issued by NWS

Home | Current Version | Previous Version | Text Only | Print | Product List | Glossary On
Versions: 1 2 3 4 5 6 7 8 9 10 11 12 13 14 15 16 17 18 19 20 21 22 23
000
FTUS43 KAPX 282334
TAFMBL
TAF
KMBL 282334Z 2900/2924 19012G18KT P6SM SCT050
     FM290200 17008KT P6SM SCT250
     FM290400 17006KT P6SM SCT250 WS015/19035KT
     FM291100 18004KT P6SM BKN080 WS015/19035KT
     FM291600 21011KT P6SM SCT070
     FM291800 22015G23KT P6SM VCSH BKN045
      AMD LTD TO CLD VIS AND WIND=

USA.gov is the U.S. government's official web portal to all federal, state and local government web resources and services.